createdAt,value
2022-10-27T00:01:52.129Z,100271.50
2022-10-27T00:04:57.933Z,100265.68
2022-10-27T00:08:03.301Z,100269.47
2022-10-27T00:11:18.402Z,100270.22
2022-10-27T00:14:26.059Z,100272.89
2022-10-27T00:17:32.678Z,100274.58
2022-10-27T00:20:38.651Z,100279.82
2022-10-27T00:23:45.001Z,100282.05
2022-10-27T00:26:50.692Z,100277.16
2022-10-27T00:29:56.842Z,100284.47
2022-10-27T00:33:02.270Z,100286.06
2022-10-27T00:36:08.074Z,100288.89
2022-10-27T00:39:13.718Z,100293.79
2022-10-27T00:42:20.159Z,100291.13
2022-10-27T00:45:26.509Z,100296.98
2022-10-27T00:48:32.941Z,100290.70
2022-10-27T00:51:38.969Z,100291.70
2022-10-27T00:54:45.419Z,100294.45
2022-10-27T00:57:52.973Z,100302.75
2022-10-27T01:00:59.006Z,100295.08
2022-10-27T01:04:04.263Z,100298.59
2022-10-27T01:07:10.508Z,100302.64
2022-10-27T01:10:16.333Z,100309.53
2022-10-27T01:13:22.261Z,100301.80
2022-10-27T01:17:00.768Z,100305.13
2022-10-27T01:20:44.192Z,100312.00
2022-10-27T01:24:31.310Z,100316.38
2022-10-27T01:28:09.773Z,100313.22
2022-10-27T01:31:29.393Z,100322.49
2022-10-27T01:34:52.991Z,100323.98
2022-10-27T01:38:16.326Z,100317.63
2022-10-27T01:41:32.290Z,100323.28
2022-10-27T01:44:50.417Z,100322.68
2022-10-27T01:47:56.665Z,100330.05
2022-10-27T01:51:02.559Z,100333.50
2022-10-27T01:54:09.286Z,100334.52
2022-10-27T01:57:44.447Z,100336.47
2022-10-27T02:01:09.022Z,100340.20
2022-10-27T02:04:44.253Z,100320.77
2022-10-27T02:08:19.270Z,100350.00
2022-10-27T02:11:25.594Z,100358.11
2022-10-27T02:14:30.866Z,100362.17
2022-10-27T02:17:36.781Z,100364.20
2022-10-27T02:20:44.392Z,100368.03
2022-10-27T02:23:50.146Z,100378.00
2022-10-27T02:27:04.546Z,100377.23
2022-10-27T02:30:10.354Z,100372.33
2022-10-27T02:33:17.153Z,100367.14
2022-10-27T02:36:23.571Z,100375.84
2022-10-27T02:39:30.894Z,100383.70
2022-10-27T02:42:37.401Z,100384.31
2022-10-27T02:45:43.667Z,100386.80
2022-10-27T02:48:49.457Z,100392.89
2022-10-27T02:51:56.310Z,100397.41
2022-10-27T02:55:02.963Z,100396.77
2022-10-27T02:58:09.460Z,100395.16
2022-10-27T03:01:08.518Z,100392.48
2022-10-27T03:04:14.147Z,100394.81
2022-10-27T03:07:19.784Z,100401.84
2022-10-27T03:10:26.304Z,100401.72
2022-10-27T03:13:32.427Z,100398.96
2022-10-27T03:16:38.361Z,100400.88
2022-10-27T03:19:44.114Z,100405.14
2022-10-27T03:22:52.550Z,100401.14
2022-10-27T03:26:00.231Z,100404.67
2022-10-27T03:29:06.346Z,100410.43
2022-10-27T03:32:11.917Z,100411.95
2022-10-27T03:35:19.395Z,100414.08
2022-10-27T03:38:26.389Z,100418.53
2022-10-27T03:41:32.952Z,100421.10
2022-10-27T03:44:39.514Z,100424.77
2022-10-27T03:47:45.804Z,100425.68
2022-10-27T03:50:51.674Z,100424.30
2022-10-27T03:53:57.838Z,100427.18
2022-10-27T03:57:04.341Z,100426.22
2022-10-27T04:00:10.139Z,100430.34
2022-10-27T04:03:16.123Z,100422.92
2022-10-27T04:06:20.890Z,100430.91
2022-10-27T04:09:27.423Z,100433.43
2022-10-27T04:12:32.829Z,100429.30
2022-10-27T04:15:40.336Z,100430.92
2022-10-27T04:18:45.475Z,100423.47
2022-10-27T04:21:51.104Z,100432.38
2022-10-27T04:24:58.071Z,100434.67
2022-10-27T04:28:04.710Z,100440.03
2022-10-27T04:31:13.000Z,100439.23
2022-10-27T04:34:18.885Z,100445.69
2022-10-27T04:37:24.451Z,100440.22
2022-10-27T04:40:30.147Z,100453.85
2022-10-27T04:43:35.886Z,100456.59
2022-10-27T04:46:40.994Z,100457.03
2022-10-27T04:49:47.209Z,100463.70
2022-10-27T04:52:53.396Z,100453.44
2022-10-27T04:55:59.411Z,100460.26
2022-10-27T04:59:05.921Z,100466.70
2022-10-27T05:02:11.461Z,100462.16
2022-10-27T05:05:17.614Z,100473.69
2022-10-27T05:08:24.384Z,100473.05
2022-10-27T05:11:31.109Z,100478.28
2022-10-27T05:14:38.820Z,100483.54
2022-10-27T05:17:44.120Z,100488.91
2022-10-27T05:20:49.957Z,100492.38
2022-10-27T05:23:55.826Z,100500.55
2022-10-27T05:27:04.029Z,100509.96
2022-10-27T05:30:10.852Z,100507.45
2022-10-27T05:33:17.345Z,100509.86
2022-10-27T05:36:22.525Z,100517.88
2022-10-27T05:39:29.253Z,100529.02
2022-10-27T05:42:28.132Z,100525.68
2022-10-27T05:45:33.458Z,100531.84
2022-10-27T05:48:38.679Z,100530.26
2022-10-27T05:51:44.119Z,100541.48
2022-10-27T05:54:49.611Z,100545.93
2022-10-27T05:57:56.425Z,100546.14
2022-10-27T06:01:01.513Z,100543.05
2022-10-27T06:04:07.079Z,100543.83
2022-10-27T06:07:12.150Z,100545.78
2022-10-27T06:10:17.952Z,100555.73
2022-10-27T06:13:25.672Z,100558.36
2022-10-27T06:16:35.474Z,100559.72
2022-10-27T06:19:40.244Z,100564.88
2022-10-27T06:22:46.411Z,100569.59
2022-10-27T06:25:51.971Z,100569.91
2022-10-27T06:28:58.543Z,100574.96
2022-10-27T06:32:03.351Z,100577.12
2022-10-27T06:35:09.755Z,100589.21
2022-10-27T06:38:08.788Z,100587.62
2022-10-27T06:41:02.314Z,100591.92
2022-10-27T06:44:07.467Z,100589.95
2022-10-27T06:47:13.130Z,100590.33
2022-10-27T06:50:20.803Z,100583.53
2022-10-27T06:53:27.591Z,100594.41
2022-10-27T06:56:33.970Z,100594.92
2022-10-27T06:59:40.113Z,100593.77
2022-10-27T07:02:46.381Z,100601.80
2022-10-27T07:05:53.064Z,100598.56
2022-10-27T07:08:59.709Z,100602.38
2022-10-27T07:12:08.276Z,100593.30
2022-10-27T07:15:14.897Z,100598.70
2022-10-27T07:18:22.383Z,100608.73
2022-10-27T07:21:28.265Z,100609.95
2022-10-27T07:24:34.899Z,100605.38
2022-10-27T07:27:40.804Z,100606.50
2022-10-27T07:30:55.223Z,100605.88
2022-10-27T07:34:01.311Z,100622.91
2022-10-27T07:37:07.413Z,100614.86
2022-10-27T07:40:13.287Z,100614.78
2022-10-27T07:43:20.770Z,100627.56
2022-10-27T07:46:27.424Z,100628.95
2022-10-27T07:49:33.642Z,100622.81
2022-10-27T07:52:39.621Z,100645.55
2022-10-27T07:55:48.704Z,100647.89
2022-10-27T07:58:54.674Z,100641.64
2022-10-27T08:02:01.285Z,100642.25
2022-10-27T08:05:06.717Z,100644.28
2022-10-27T08:08:15.946Z,100652.73
2022-10-27T08:11:22.022Z,100656.31
2022-10-27T08:14:27.959Z,100645.97
2022-10-27T08:17:36.527Z,100644.45
2022-10-27T08:20:43.523Z,100656.36
2022-10-27T08:23:42.054Z,100655.94
2022-10-27T08:26:48.869Z,100678.28
2022-10-27T08:29:54.515Z,100653.66
2022-10-27T08:33:00.529Z,100658.17
2022-10-27T08:36:09.531Z,100662.34
2022-10-27T08:39:14.821Z,100670.97
2022-10-27T08:43:08.840Z,100660.41
2022-10-27T08:46:22.361Z,100679.56
2022-10-27T08:49:49.964Z,100682.48
2022-10-27T08:53:04.702Z,100689.83
2022-10-27T08:56:12.478Z,100681.70
2022-10-27T08:59:18.164Z,100672.66
2022-10-27T09:02:51.877Z,100677.30
2022-10-27T09:06:37.453Z,100693.55
2022-10-27T09:10:03.561Z,100693.36
2022-10-27T09:13:32.241Z,100689.92
2022-10-27T09:16:58.433Z,100688.99
2022-10-27T09:20:15.103Z,100690.30
2022-10-27T09:23:27.687Z,100688.99
2022-10-27T09:26:37.810Z,100680.53
2022-10-27T09:29:37.174Z,100690.42
2022-10-27T09:32:45.485Z,100686.50
2022-10-27T09:35:51.409Z,100690.96
2022-10-27T09:38:56.796Z,100695.64
2022-10-27T09:42:03.596Z,100693.54
2022-10-27T09:45:13.079Z,100705.97
2022-10-27T09:48:21.515Z,100700.98
2022-10-27T09:51:44.921Z,100714.09
2022-10-27T09:54:55.234Z,100702.28
2022-10-27T09:58:00.444Z,100709.64
2022-10-27T10:01:15.168Z,100704.33
2022-10-27T10:04:23.640Z,100707.72
2022-10-27T10:07:54.283Z,100701.13
2022-10-27T10:11:21.968Z,100708.70
2022-10-27T10:14:31.628Z,100712.75
2022-10-27T10:17:41.363Z,100700.31
2022-10-27T10:20:51.417Z,100708.61
2022-10-27T10:24:05.449Z,100706.51
2022-10-27T10:27:13.141Z,100695.86
2022-10-27T10:30:21.907Z,100697.68
2022-10-27T10:33:29.759Z,100694.30
2022-10-27T10:36:41.819Z,100694.70
2022-10-27T10:39:51.561Z,100694.66
2022-10-27T10:43:02.326Z,100692.69
2022-10-27T10:46:07.244Z,100687.38
2022-10-27T10:49:13.980Z,100699.19
2022-10-27T10:52:32.796Z,100694.84
2022-10-27T10:55:44.475Z,100700.48
2022-10-27T10:58:44.180Z,100704.63
2022-10-27T11:01:59.604Z,100694.09
2022-10-27T11:05:05.368Z,100703.14
2022-10-27T11:08:11.795Z,100699.84
2022-10-27T11:11:18.868Z,100699.62
2022-10-27T11:14:29.722Z,100704.18
2022-10-27T11:17:35.348Z,100710.61
2022-10-27T11:20:48.322Z,100706.11
2022-10-27T11:24:01.370Z,100711.37
2022-10-27T11:27:28.059Z,100708.11
2022-10-27T11:30:37.172Z,100711.81
2022-10-27T11:33:54.002Z,100694.07
2022-10-27T11:37:15.046Z,100706.09
2022-10-27T11:40:30.589Z,100707.98
2022-10-27T11:44:04.698Z,100717.66
2022-10-27T11:47:34.002Z,100715.61
2022-10-27T11:50:52.453Z,100722.02
2022-10-27T11:54:00.494Z,100715.42
2022-10-27T11:57:21.720Z,100716.62
2022-10-27T12:00:28.903Z,100725.63
2022-10-27T12:04:04.039Z,100747.78
2022-10-27T12:07:30.677Z,100727.05
2022-10-27T12:10:42.971Z,100739.48
2022-10-27T12:14:00.250Z,100728.66
2022-10-27T12:17:36.324Z,100746.47
2022-10-27T12:20:53.903Z,100746.20
2022-10-27T12:24:16.014Z,100741.70
2022-10-27T12:27:29.079Z,100753.83
2022-10-27T12:30:38.336Z,100755.44
2022-10-27T12:34:01.857Z,100760.06
2022-10-27T12:37:22.392Z,100748.30
2022-10-27T12:40:34.681Z,100761.27
2022-10-27T12:44:06.332Z,100759.95
2022-10-27T12:47:18.268Z,100762.94
2022-10-27T12:50:41.226Z,100765.38
2022-10-27T12:54:10.037Z,100772.24
2022-10-27T12:57:50.370Z,100770.41
2022-10-27T13:01:12.369Z,100771.49
2022-10-27T13:04:45.532Z,100787.39
2022-10-27T13:08:18.238Z,100782.11
2022-10-27T13:12:03.831Z,100784.05
2022-10-27T13:15:20.499Z,100783.66
2022-10-27T13:19:05.492Z,100790.54
2022-10-27T13:22:29.254Z,100788.73
2022-10-27T13:25:56.361Z,100788.65
2022-10-27T13:29:15.951Z,100792.34
2022-10-27T13:32:41.729Z,100794.17
2022-10-27T13:35:50.228Z,100797.44
2022-10-27T13:38:55.624Z,100796.37
2022-10-27T13:45:53.905Z,100802.19
2022-10-27T13:49:02.222Z,100805.30
2022-10-27T13:52:22.562Z,100812.31
2022-10-27T13:55:47.319Z,100815.17
2022-10-27T13:59:14.024Z,100805.23
2022-10-27T14:02:21.988Z,100815.25
2022-10-27T14:05:49.974Z,100811.64
2022-10-27T14:09:06.028Z,100812.91
2022-10-27T14:12:19.630Z,100820.52
2022-10-27T14:15:45.154Z,100823.09
2022-10-27T14:18:52.992Z,100824.28
2022-10-27T14:22:05.389Z,100822.92
2022-10-27T14:25:33.427Z,100827.56
2022-10-27T14:28:39.272Z,100827.91
2022-10-27T14:31:38.599Z,100830.55
2022-10-27T14:34:34.072Z,100838.44
2022-10-27T14:37:30.763Z,100833.41
2022-10-27T14:40:28.525Z,100836.50
2022-10-27T14:43:38.073Z,100841.69
2022-10-27T14:46:46.131Z,100846.69
2022-10-27T14:50:01.837Z,100843.08
2022-10-27T14:53:10.507Z,100848.20
2022-10-27T14:56:32.572Z,100840.78
2022-10-27T14:59:40.231Z,100846.98
2022-10-27T15:02:47.057Z,100846.56
2022-10-27T15:05:55.555Z,100856.79
2022-10-27T15:09:00.407Z,100858.05
2022-10-27T15:12:05.474Z,100857.36
2022-10-27T15:15:15.002Z,100853.80
2022-10-27T15:18:45.600Z,100865.14
2022-10-27T15:21:50.969Z,100865.72
2022-10-27T15:24:56.561Z,100865.17
2022-10-27T15:28:02.588Z,100874.48
2022-10-27T15:31:09.875Z,100868.34
2022-10-27T15:34:16.924Z,100874.58
2022-10-27T15:37:33.697Z,100872.30
2022-10-27T15:40:55.387Z,100877.70
2022-10-27T15:44:05.721Z,100875.59
2022-10-27T15:47:11.854Z,100871.50
2022-10-27T15:50:17.976Z,100882.52
2022-10-27T15:53:36.518Z,100876.63
2022-10-27T15:56:54.878Z,100882.93
2022-10-27T16:00:05.261Z,100880.45
2022-10-27T16:03:13.838Z,100883.15
2022-10-27T16:06:40.100Z,100881.73
2022-10-27T16:09:53.986Z,100889.30
2022-10-27T16:13:01.378Z,100890.64
2022-10-27T16:16:07.071Z,100893.77
2022-10-27T16:19:13.901Z,100889.64
2022-10-27T16:22:20.485Z,100896.12
2022-10-27T16:25:30.612Z,100894.33
2022-10-27T16:28:42.428Z,100899.02
2022-10-27T16:31:47.522Z,100898.27
2022-10-27T16:34:53.479Z,100897.66
2022-10-27T16:37:59.906Z,100897.59
2022-10-27T16:41:06.817Z,100900.34
2022-10-27T16:44:11.840Z,100904.58
2022-10-27T16:47:18.575Z,100889.72
2022-10-27T16:50:24.920Z,100903.24
2022-10-27T16:53:31.443Z,100891.19
2022-10-27T16:56:37.546Z,100901.63
2022-10-27T16:59:43.840Z,100909.92
2022-10-27T17:02:49.706Z,100908.13
2022-10-27T17:05:55.206Z,100910.91
2022-10-27T17:09:01.636Z,100911.89
2022-10-27T17:12:07.835Z,100912.70
2022-10-27T17:15:13.519Z,100926.84
2022-10-27T17:18:21.230Z,100911.25
2022-10-27T17:21:26.153Z,100917.53
2022-10-27T17:24:32.586Z,100923.52
2022-10-27T17:27:39.024Z,100919.34
2022-10-27T17:30:44.557Z,100930.47
2022-10-27T17:33:50.590Z,100927.89
2022-10-27T17:36:56.856Z,100929.19
2022-10-27T17:40:05.326Z,100931.06
2022-10-27T17:43:11.201Z,100930.27
2022-10-27T17:46:22.836Z,100937.36
2022-10-27T17:49:29.284Z,100932.71
2022-10-27T17:52:35.473Z,100930.29
2022-10-27T17:55:41.771Z,100938.08
2022-10-27T17:58:43.605Z,100937.58
2022-10-27T18:01:50.347Z,100945.94
2022-10-27T18:04:56.587Z,100941.56
2022-10-27T18:08:01.920Z,100943.66
2022-10-27T18:11:08.601Z,100942.70
2022-10-27T18:14:17.796Z,100945.37
2022-10-27T18:17:24.334Z,100942.63
2022-10-27T18:20:30.158Z,100944.31
2022-10-27T18:23:35.334Z,100943.46
2022-10-27T18:26:44.673Z,100951.94
2022-10-27T18:29:50.463Z,100951.33
2022-10-27T18:32:58.265Z,100946.02
2022-10-27T18:36:06.049Z,100942.95
2022-10-27T18:39:13.388Z,100951.38
2022-10-27T18:42:19.351Z,100947.61
2022-10-27T18:45:25.149Z,100948.86
2022-10-27T18:48:32.080Z,100957.98
2022-10-27T18:51:37.821Z,100959.89
2022-10-27T18:54:44.002Z,100962.14
2022-10-27T18:57:51.089Z,100969.10
2022-10-27T19:00:57.178Z,100972.07
2022-10-27T19:04:05.286Z,100972.56
2022-10-27T19:07:11.307Z,100982.08
2022-10-27T19:10:19.242Z,100975.70
2022-10-27T19:13:19.597Z,100980.56
2022-10-27T19:16:10.369Z,100975.89
2022-10-27T19:19:03.259Z,100984.12
2022-10-27T19:22:09.911Z,100985.84
2022-10-27T19:25:16.111Z,100988.78
2022-10-27T19:28:21.536Z,100987.22
2022-10-27T19:31:30.651Z,100991.02
2022-10-27T19:34:37.171Z,100991.06
2022-10-27T19:37:43.190Z,100991.20
2022-10-27T19:40:49.879Z,100987.45
2022-10-27T19:43:49.840Z,100989.66
2022-10-27T19:46:44.485Z,100990.52
2022-10-27T19:49:50.778Z,100993.27
2022-10-27T19:52:57.016Z,100986.53
2022-10-27T19:56:05.098Z,100988.59
2022-10-27T19:59:11.302Z,100992.25
2022-10-27T20:02:16.850Z,100985.33
2022-10-27T20:05:21.944Z,100984.66
2022-10-27T20:08:28.049Z,100985.38
2022-10-27T20:11:36.816Z,100989.29
2022-10-27T20:14:42.779Z,100987.95
2022-10-27T20:17:48.744Z,100987.83
2022-10-27T20:20:55.067Z,100979.28
2022-10-27T20:24:00.992Z,100980.84
2022-10-27T20:27:06.213Z,100984.87
2022-10-27T20:30:11.085Z,100986.86
2022-10-27T20:33:17.322Z,100992.28
2022-10-27T20:36:26.113Z,100984.78
2022-10-27T20:39:30.763Z,100987.87
2022-10-27T20:42:36.634Z,100991.23
2022-10-27T20:45:42.527Z,100988.00
2022-10-27T20:48:49.068Z,100990.66
2022-10-27T20:51:55.418Z,100988.54
2022-10-27T20:55:01.492Z,100994.34
2022-10-27T20:58:06.515Z,101001.85
2022-10-27T21:01:50.136Z,101000.48
2022-10-27T21:04:56.682Z,100999.10
2022-10-27T21:08:02.253Z,100999.02
2022-10-27T21:11:02.625Z,101000.99
2022-10-27T21:13:55.977Z,101008.39
2022-10-27T21:17:07.588Z,101010.90
2022-10-27T21:20:13.376Z,101008.91
2022-10-27T21:23:18.825Z,101008.02
2022-10-27T21:26:25.323Z,101009.17
2022-10-27T21:29:30.993Z,101010.73
2022-10-27T21:32:37.656Z,101014.43
2022-10-27T21:35:43.133Z,101014.09
2022-10-27T21:38:57.562Z,101019.48
2022-10-27T21:42:04.751Z,101029.36
2022-10-27T21:45:10.217Z,101024.91
2022-10-27T21:48:15.484Z,101035.38
2022-10-27T21:51:20.828Z,101036.05
2022-10-27T21:54:27.598Z,101033.29
2022-10-27T21:57:33.482Z,101031.70
2022-10-27T22:00:39.684Z,101039.25
2022-10-27T22:03:46.345Z,101031.34
2022-10-27T22:06:52.325Z,101030.50
2022-10-27T22:09:58.443Z,101029.20
2022-10-27T22:13:05.246Z,101028.88
2022-10-27T22:16:20.843Z,101033.70
2022-10-27T22:19:28.511Z,101027.06
2022-10-27T22:22:34.516Z,101034.65
2022-10-27T22:25:42.304Z,101035.88
2022-10-27T22:28:49.056Z,101037.17
2022-10-27T22:31:54.730Z,101033.78
2022-10-27T22:35:00.633Z,101032.12
2022-10-27T22:38:07.180Z,101038.33
2022-10-27T22:41:22.173Z,101036.58
2022-10-27T22:44:28.838Z,101042.08
2022-10-27T22:47:35.061Z,101045.01
2022-10-27T22:50:40.755Z,101048.30
2022-10-27T22:53:47.635Z,101054.64
2022-10-27T22:56:55.274Z,101059.80
2022-10-27T23:00:01.104Z,101057.20
2022-10-27T23:03:07.289Z,101062.53
2022-10-27T23:06:13.411Z,101063.19
2022-10-27T23:09:31.680Z,101071.43
2022-10-27T23:12:37.744Z,101067.00
2022-10-27T23:15:43.087Z,101064.98
2022-10-27T23:18:50.599Z,101068.57
2022-10-27T23:21:57.256Z,101065.84
2022-10-27T23:25:03.786Z,101064.13
2022-10-27T23:28:09.522Z,101061.02
2022-10-27T23:31:16.942Z,101067.87
2022-10-27T23:34:23.447Z,101068.60
2022-10-27T23:37:29.541Z,101064.67
2022-10-27T23:40:35.176Z,101059.18
2022-10-27T23:43:41.218Z,101059.54
2022-10-27T23:46:46.759Z,101058.34
2022-10-27T23:49:52.971Z,101060.54
2022-10-27T23:52:52.869Z,101065.54
2022-10-27T23:55:59.179Z,101066.59
2022-10-27T23:59:05.741Z,101066.93
